createdAt,value
2023-06-23T00:00:22.286Z,101204.72
2023-06-23T00:03:27.061Z,101199.25
2023-06-23T00:06:31.694Z,101196.75
2023-06-23T00:09:38.727Z,101203.31
2023-06-23T00:12:44.715Z,101205.91
2023-06-23T00:15:49.283Z,101204.34
2023-06-23T00:18:54.093Z,101204.22
2023-06-23T00:21:58.621Z,101198.50
2023-06-23T00:25:04.207Z,101196.72
2023-06-23T00:28:10.184Z,101190.44
2023-06-23T00:31:16.380Z,101199.03
2023-06-23T00:34:20.940Z,101193.03
2023-06-23T00:37:26.384Z,101188.91
2023-06-23T00:40:32.774Z,101198.72
2023-06-23T00:43:38.695Z,101197.63
2023-06-23T00:46:44.929Z,101198.38
2023-06-23T00:49:49.828Z,101200.31
2023-06-23T00:52:55.228Z,101200.22
2023-06-23T00:56:00.724Z,101205.31
2023-06-23T00:59:06.741Z,101202.47
2023-06-23T01:02:11.382Z,101202.13
2023-06-23T01:05:16.242Z,101195.66
2023-06-23T01:08:31.632Z,101196.97
2023-06-23T01:11:44.383Z,101190.56
2023-06-23T01:14:58.504Z,101191.66
2023-06-23T01:18:08.157Z,101196.84
2023-06-23T01:21:15.146Z,101190.38
2023-06-23T01:24:35.356Z,101195.47
2023-06-23T01:28:11.808Z,101179.16
2023-06-23T01:31:22.878Z,101190.25
2023-06-23T01:34:30.526Z,101194.13
2023-06-23T01:37:37.007Z,101190.09
2023-06-23T01:40:44.324Z,101186.84
2023-06-23T01:43:51.183Z,101188.63
2023-06-23T01:46:59.690Z,101167.72
2023-06-23T01:50:05.731Z,101164.97
2023-06-23T01:53:10.955Z,101160.59
2023-06-23T01:56:16.099Z,101170.22
2023-06-23T01:59:21.831Z,101166.88
2023-06-23T02:02:28.516Z,101180.19
2023-06-23T02:05:33.891Z,101180.59
2023-06-23T02:08:40.603Z,101180.84
2023-06-23T02:11:47.417Z,101180.84
2023-06-23T02:14:53.209Z,101192.56
2023-06-23T02:17:59.518Z,101189.78
2023-06-23T02:21:04.448Z,101198.91
2023-06-23T02:24:10.270Z,101202.09
2023-06-23T02:27:15.554Z,101192.66
2023-06-23T02:30:20.825Z,101202.31
2023-06-23T02:33:27.280Z,101197.06
2023-06-23T02:36:37.064Z,101192.88
2023-06-23T02:39:44.598Z,101195.31
2023-06-23T02:42:54.439Z,101194.13
2023-06-23T02:46:01.496Z,101197.75
2023-06-23T02:49:09.276Z,101192.47
2023-06-23T02:52:14.449Z,101198.16
2023-06-23T02:55:21.869Z,101202.16
2023-06-23T02:58:27.728Z,101196.22
2023-06-23T03:01:34.739Z,101196.91
2023-06-23T03:04:43.257Z,101195.78
2023-06-23T03:07:48.757Z,101198.81
2023-06-23T03:10:53.381Z,101192.81
2023-06-23T03:13:57.965Z,101196.91
2023-06-23T03:17:06.729Z,101200.34
2023-06-23T03:20:19.113Z,101199.06
2023-06-23T03:23:24.584Z,101197.91
2023-06-23T03:26:30.321Z,101205.75
2023-06-23T03:29:41.716Z,101198.41
2023-06-23T03:32:49.756Z,101198.06
2023-06-23T03:35:59.002Z,101207.59
2023-06-23T03:39:06.141Z,101201.41
2023-06-23T03:42:11.105Z,101204.09
2023-06-23T03:45:18.340Z,101209.56
2023-06-23T03:48:24.084Z,101207.72
2023-06-23T03:51:31.067Z,101210.25
2023-06-23T03:54:36.428Z,101219.09
2023-06-23T03:57:42.276Z,101216.34
2023-06-23T04:00:47.276Z,101224.63
2023-06-23T04:03:52.577Z,101227.13
2023-06-23T04:06:59.739Z,101226.69
2023-06-23T04:10:07.750Z,101226.03
2023-06-23T04:13:12.782Z,101231.44
2023-06-23T04:16:17.485Z,101226.34
2023-06-23T04:19:24.183Z,101226.34
2023-06-23T04:22:31.087Z,101218.25
2023-06-23T04:25:35.649Z,101231.88
2023-06-23T04:28:42.304Z,101232.19
2023-06-23T04:31:48.476Z,101229.44
2023-06-23T04:34:53.494Z,101232.59
2023-06-23T04:38:02.665Z,101233.59
2023-06-23T04:41:10.371Z,101231.59
2023-06-23T04:44:16.017Z,101234.78
2023-06-23T04:47:23.185Z,101239.59
2023-06-23T04:50:31.365Z,101229.16
2023-06-23T04:53:40.948Z,101223.03
2023-06-23T04:56:49.404Z,101228.72
2023-06-23T04:59:56.954Z,101231.06
2023-06-23T05:03:02.671Z,101235.13
2023-06-23T05:06:07.717Z,101234.03
2023-06-23T05:09:14.544Z,101233.84
2023-06-23T05:12:21.267Z,101231.00
2023-06-23T05:15:26.618Z,101236.63
2023-06-23T05:18:32.180Z,101234.03
2023-06-23T05:21:37.418Z,101214.94
2023-06-23T05:24:45.561Z,101188.03
2023-06-23T05:27:53.524Z,101215.06
2023-06-23T05:30:58.949Z,101224.59
2023-06-23T05:34:03.861Z,101220.31
2023-06-23T05:37:08.757Z,101223.25
2023-06-23T05:40:16.394Z,101203.97
2023-06-23T05:43:20.948Z,101211.53
2023-06-23T05:46:29.799Z,101207.41
2023-06-23T05:49:41.593Z,101213.66
2023-06-23T05:52:53.695Z,101211.53
2023-06-23T05:56:03.207Z,101220.31
2023-06-23T05:59:11.814Z,101227.63
2023-06-23T06:02:24.405Z,101223.56
2023-06-23T06:05:31.169Z,101230.38
2023-06-23T06:08:37.217Z,101230.53
2023-06-23T06:11:45.327Z,101231.56
2023-06-23T06:14:50.838Z,101227.78
2023-06-23T06:17:56.101Z,101230.53
2023-06-23T06:21:02.177Z,101231.22
2023-06-23T06:24:07.807Z,101226.00
2023-06-23T06:27:14.061Z,101223.13
2023-06-23T06:30:19.626Z,101218.44
2023-06-23T06:33:24.726Z,101220.34
2023-06-23T06:36:30.015Z,101222.72
2023-06-23T06:39:35.992Z,101224.94
2023-06-23T06:42:41.991Z,101218.34
2023-06-23T06:45:47.803Z,101225.13
2023-06-23T06:48:53.243Z,101226.00
2023-06-23T06:51:58.563Z,101224.69
2023-06-23T06:55:04.346Z,101224.06
2023-06-23T06:58:10.863Z,101219.19
2023-06-23T07:01:15.897Z,101224.56
2023-06-23T07:04:20.651Z,101222.56
2023-06-23T07:07:25.234Z,101216.22
2023-06-23T07:10:29.807Z,101218.66
2023-06-23T07:13:35.804Z,101219.13
2023-06-23T07:16:40.333Z,101209.28
2023-06-23T07:19:45.039Z,101219.88
2023-06-23T07:22:49.553Z,101208.56
2023-06-23T07:25:54.028Z,101217.16
2023-06-23T07:28:59.983Z,101207.19
2023-06-23T07:32:05.016Z,101211.66
2023-06-23T07:35:10.013Z,101206.56
2023-06-23T07:38:14.543Z,101202.19
2023-06-23T07:41:19.105Z,101197.59
2023-06-23T07:44:25.338Z,101204.69
2023-06-23T07:47:29.989Z,101187.97
2023-06-23T07:50:34.738Z,101183.69
2023-06-23T07:53:39.789Z,101182.75
2023-06-23T07:56:44.337Z,101187.63
2023-06-23T07:59:50.202Z,101181.69
2023-06-23T08:02:54.871Z,101172.56
2023-06-23T08:05:59.543Z,101170.53
2023-06-23T08:09:04.203Z,101180.75
2023-06-23T08:12:10.248Z,101180.03
2023-06-23T08:15:16.182Z,101178.31
2023-06-23T08:18:20.779Z,101178.53
2023-06-23T08:21:25.395Z,101179.50
2023-06-23T08:24:30.031Z,101183.53
2023-06-23T08:27:34.527Z,101184.53
2023-06-23T08:30:40.400Z,101189.59
2023-06-23T08:33:46.502Z,101185.19
2023-06-23T08:36:51.330Z,101188.00
2023-06-23T08:39:55.876Z,101187.03
2023-06-23T08:43:01.362Z,101189.28
2023-06-23T08:46:09.189Z,101182.63
2023-06-23T08:49:17.546Z,101190.00
2023-06-23T08:52:22.645Z,101186.34
2023-06-23T08:55:27.312Z,101193.22
2023-06-23T08:58:32.759Z,101192.34
2023-06-23T09:01:38.984Z,101190.00
2023-06-23T09:04:43.506Z,101199.16
2023-06-23T09:07:48.167Z,101195.47
2023-06-23T09:10:52.731Z,101201.41
2023-06-23T09:13:58.339Z,101195.84
2023-06-23T09:17:04.421Z,101193.22
2023-06-23T09:20:10.477Z,101198.09
2023-06-23T09:23:18.891Z,101203.78
2023-06-23T09:26:23.646Z,101190.47
2023-06-23T09:29:28.822Z,101190.97
2023-06-23T09:32:35.663Z,101197.13
2023-06-23T09:35:46.679Z,101189.53
2023-06-23T09:38:54.203Z,101189.78
2023-06-23T09:41:59.127Z,101184.75
2023-06-23T09:45:04.409Z,101186.34
2023-06-23T09:48:18.387Z,101189.44
2023-06-23T09:51:23.437Z,101189.44
2023-06-23T09:54:36.422Z,101183.47
2023-06-23T09:57:41.176Z,101187.84
2023-06-23T10:00:45.795Z,101190.47
2023-06-23T10:03:54.152Z,101194.00
2023-06-23T10:06:59.731Z,101189.63
2023-06-23T10:10:21.462Z,101187.63
2023-06-23T10:13:27.072Z,101197.59
2023-06-23T10:16:31.889Z,101201.13
2023-06-23T10:19:37.786Z,101195.13
2023-06-23T10:22:43.363Z,101186.44
2023-06-23T10:25:50.732Z,101195.22
2023-06-23T10:28:56.795Z,101184.66
2023-06-23T10:32:03.309Z,101198.72
2023-06-23T10:35:10.417Z,101198.72
2023-06-23T10:38:19.779Z,101204.22
2023-06-23T10:41:24.789Z,101206.34
2023-06-23T10:44:29.434Z,101203.97
2023-06-23T10:47:34.360Z,101215.94
2023-06-23T10:50:41.375Z,101208.66
2023-06-23T10:53:58.213Z,101219.13
2023-06-23T10:57:02.714Z,101214.50
2023-06-23T11:00:10.075Z,101210.94
2023-06-23T11:03:28.958Z,101199.63
2023-06-23T11:06:38.655Z,101201.41
2023-06-23T11:09:46.650Z,101203.47
2023-06-23T11:12:53.255Z,101207.16
2023-06-23T11:16:01.261Z,101210.03
2023-06-23T11:19:05.776Z,101205.91
2023-06-23T11:22:14.506Z,101202.75
2023-06-23T11:25:26.247Z,101198.28
2023-06-23T11:28:34.888Z,101208.25
2023-06-23T11:32:06.376Z,101209.34
2023-06-23T11:35:11.067Z,101207.72
2023-06-23T11:38:17.080Z,101195.00
2023-06-23T11:41:27.845Z,101206.59
2023-06-23T11:44:32.338Z,101206.09
2023-06-23T11:47:38.040Z,101208.59
2023-06-23T11:50:44.435Z,101211.94
2023-06-23T11:53:52.452Z,101219.09
2023-06-23T11:56:56.957Z,101211.50
2023-06-23T12:00:01.649Z,101216.38
2023-06-23T12:03:06.494Z,101216.38
2023-06-23T12:06:15.597Z,101215.78
2023-06-23T12:09:21.864Z,101222.47
2023-06-23T12:12:26.369Z,101216.75
2023-06-23T12:15:31.426Z,101221.34
2023-06-23T12:18:46.032Z,101224.81
2023-06-23T12:21:51.441Z,101217.72
2023-06-23T12:24:58.136Z,101226.31
2023-06-23T12:28:04.578Z,101226.50
2023-06-23T12:31:09.133Z,101230.25
2023-06-23T12:34:14.759Z,101232.06
2023-06-23T12:37:19.316Z,101237.25
2023-06-23T12:40:32.409Z,101236.16
2023-06-23T12:43:37.073Z,101249.06
2023-06-23T12:46:41.781Z,101247.41
2023-06-23T12:49:46.382Z,101269.72
2023-06-23T12:52:51.171Z,101267.09
2023-06-23T12:55:57.108Z,101261.34
2023-06-23T12:59:01.591Z,101264.59
2023-06-23T13:02:06.237Z,101267.75
2023-06-23T13:05:11.205Z,101261.34
2023-06-23T13:08:17.042Z,101263.72
2023-06-23T13:11:23.026Z,101268.28
2023-06-23T13:14:27.991Z,101267.22
2023-06-23T13:17:32.740Z,101267.75
2023-06-23T13:20:37.289Z,101266.63
2023-06-23T13:23:41.746Z,101260.41
2023-06-23T13:26:49.351Z,101264.94
2023-06-23T13:29:54.474Z,101269.47
2023-06-23T13:32:59.110Z,101269.28
2023-06-23T13:36:03.703Z,101273.56
2023-06-23T13:39:08.367Z,101281.25
2023-06-23T13:42:14.435Z,101276.47
2023-06-23T13:45:19.025Z,101281.22
2023-06-23T13:48:23.766Z,101285.22
2023-06-23T13:51:30.045Z,101286.00
2023-06-23T13:54:34.929Z,101279.69
2023-06-23T13:57:43.802Z,101276.88
2023-06-23T14:00:50.101Z,101269.72
2023-06-23T14:03:54.777Z,101274.50
2023-06-23T14:06:59.681Z,101287.47
2023-06-23T14:10:06.439Z,101291.56
2023-06-23T14:13:12.914Z,101304.84
2023-06-23T14:16:18.025Z,101312.44
2023-06-23T14:19:22.609Z,101336.44
2023-06-23T14:22:27.185Z,101338.66
2023-06-23T14:25:32.863Z,101368.81
2023-06-23T14:28:39.073Z,101362.81
2023-06-23T14:31:44.417Z,101367.56
2023-06-23T14:34:48.991Z,101374.34
2023-06-23T14:37:53.501Z,101377.28
2023-06-23T14:40:58.425Z,101380.00
2023-06-23T14:44:04.514Z,101400.63
2023-06-23T14:47:09.154Z,101402.81
2023-06-23T14:50:14.021Z,101402.38
2023-06-23T14:53:18.724Z,101407.28
2023-06-23T14:56:23.569Z,101407.28
2023-06-23T14:59:29.506Z,101425.88
2023-06-23T15:02:33.949Z,101425.72
2023-06-23T15:05:38.468Z,101421.19
2023-06-23T15:08:43.244Z,101418.72
2023-06-23T15:11:47.857Z,101421.81
2023-06-23T15:14:53.849Z,101431.56
2023-06-23T15:17:58.422Z,101434.63
2023-06-23T15:21:03.278Z,101427.34
2023-06-23T15:24:08.279Z,101430.09
2023-06-23T15:27:12.957Z,101436.25
2023-06-23T15:30:19.127Z,101429.50
2023-06-23T15:33:23.734Z,101436.56
2023-06-23T15:36:28.268Z,101441.88
2023-06-23T15:39:33.326Z,101446.63
2023-06-23T15:42:38.156Z,101443.88
2023-06-23T15:45:44.049Z,101462.38
2023-06-23T15:48:48.533Z,101465.34
2023-06-23T15:51:53.517Z,101483.66
2023-06-23T15:54:58.103Z,101477.72
2023-06-23T15:58:02.623Z,101478.56
2023-06-23T16:01:08.523Z,101467.66
2023-06-23T16:04:13.236Z,101464.97
2023-06-23T16:07:17.940Z,101469.75
2023-06-23T16:10:22.948Z,101481.53
2023-06-23T16:13:29.275Z,101484.25
2023-06-23T16:16:35.227Z,101490.16
2023-06-23T16:19:39.759Z,101482.69
2023-06-23T16:22:44.217Z,101487.84
2023-06-23T16:25:48.776Z,101491.78
2023-06-23T16:28:53.295Z,101486.19
2023-06-23T16:31:59.492Z,101498.59
2023-06-23T16:35:04.313Z,101492.34
2023-06-23T16:38:08.862Z,101490.22
2023-06-23T16:41:13.398Z,101497.75
2023-06-23T16:44:18.177Z,101505.56
2023-06-23T16:47:24.105Z,101514.41
2023-06-23T16:50:29.009Z,101504.28
2023-06-23T16:53:33.565Z,101500.19
2023-06-23T16:56:38.319Z,101508.69
2023-06-23T16:59:42.785Z,101518.13
2023-06-23T17:02:48.763Z,101522.69
2023-06-23T17:05:53.396Z,101519.38
2023-06-23T17:08:57.931Z,101514.91
2023-06-23T17:12:17.849Z,101516.16
2023-06-23T17:15:23.496Z,101521.06
2023-06-23T17:18:29.413Z,101525.81
2023-06-23T17:21:34.245Z,101524.25
2023-06-23T17:24:38.879Z,101538.84
2023-06-23T17:27:43.594Z,101531.91
2023-06-23T17:30:48.088Z,101532.09
2023-06-23T17:33:54.081Z,101532.44
2023-06-23T17:36:58.560Z,101522.06
2023-06-23T17:40:03.250Z,101525.16
2023-06-23T17:43:08.037Z,101533.91
2023-06-23T17:46:12.867Z,101539.28
2023-06-23T17:49:19.045Z,101540.22
2023-06-23T17:52:23.583Z,101544.63
2023-06-23T17:55:28.218Z,101545.56
2023-06-23T17:58:33.158Z,101551.53
2023-06-23T18:01:37.954Z,101544.22
2023-06-23T18:04:44.034Z,101549.75
2023-06-23T18:07:48.603Z,101549.13
2023-06-23T18:10:53.291Z,101536.78
2023-06-23T18:13:57.907Z,101534.72
2023-06-23T18:17:03.302Z,101540.59
2023-06-23T18:20:10.598Z,101551.47
2023-06-23T18:23:15.202Z,101551.59
2023-06-23T18:26:19.732Z,101550.91
2023-06-23T18:29:24.237Z,101551.56
2023-06-23T18:32:44.675Z,101562.63
2023-06-23T18:35:50.932Z,101564.28
2023-06-23T18:38:55.387Z,101562.63
2023-06-23T18:41:59.913Z,101566.69
2023-06-23T18:45:04.627Z,101569.69
2023-06-23T18:48:09.437Z,101562.69
2023-06-23T18:51:15.538Z,101569.31
2023-06-23T18:54:20.044Z,101563.75
2023-06-23T18:57:25.306Z,101566.31
2023-06-23T19:00:30.066Z,101576.66
2023-06-23T19:03:34.889Z,101580.53
2023-06-23T19:06:40.852Z,101585.66
2023-06-23T19:09:45.595Z,101589.75
2023-06-23T19:12:53.197Z,101591.97
2023-06-23T19:15:58.060Z,101589.84
2023-06-23T19:19:02.591Z,101590.28
2023-06-23T19:22:09.118Z,101596.13
2023-06-23T19:25:13.819Z,101597.06
2023-06-23T19:28:18.920Z,101599.81
2023-06-23T19:31:23.528Z,101604.84
2023-06-23T19:34:32.230Z,101609.56
2023-06-23T19:37:38.212Z,101615.50
2023-06-23T19:40:42.719Z,101612.72
2023-06-23T19:43:47.174Z,101616.69
2023-06-23T19:46:51.855Z,101620.84
2023-06-23T19:49:56.487Z,101621.19
2023-06-23T19:53:02.340Z,101621.25
2023-06-23T19:56:07.037Z,101621.63
2023-06-23T19:59:11.733Z,101620.25
2023-06-23T20:02:16.321Z,101615.34
2023-06-23T20:05:21.150Z,101619.97
2023-06-23T20:08:27.041Z,101627.75
2023-06-23T20:11:31.700Z,101620.03
2023-06-23T20:14:36.214Z,101630.59
2023-06-23T20:17:41.183Z,101631.19
2023-06-23T20:20:45.709Z,101632.94
2023-06-23T20:23:51.654Z,101640.16
2023-06-23T20:26:56.360Z,101641.81
2023-06-23T20:30:01.016Z,101650.31
2023-06-23T20:33:05.552Z,101645.03
2023-06-23T20:36:10.162Z,101649.63
2023-06-23T20:39:26.826Z,101642.44
2023-06-23T20:42:31.459Z,101652.06
2023-06-23T20:45:39.246Z,101653.75
2023-06-23T20:48:44.121Z,101656.75
2023-06-23T20:51:48.678Z,101654.06
2023-06-23T20:54:54.915Z,101655.28
2023-06-23T20:57:59.451Z,101663.16
2023-06-23T21:01:04.098Z,101665.06
2023-06-23T21:04:08.756Z,101667.66
2023-06-23T21:07:13.813Z,101672.00
2023-06-23T21:10:28.606Z,101676.75
2023-06-23T21:13:33.841Z,101680.19
2023-06-23T21:16:38.448Z,101681.75
2023-06-23T21:19:43.020Z,101680.00
2023-06-23T21:22:47.504Z,101688.16
2023-06-23T21:25:53.367Z,101690.59
2023-06-23T21:28:57.953Z,101697.72
2023-06-23T21:32:02.452Z,101694.91
2023-06-23T21:35:07.860Z,101699.94
2023-06-23T21:38:12.334Z,101697.75
2023-06-23T21:41:18.282Z,101717.88
2023-06-23T21:44:23.067Z,101698.66
2023-06-23T21:47:27.607Z,101709.63
2023-06-23T21:50:32.329Z,101705.22
2023-06-23T21:53:37.120Z,101712.63
2023-06-23T21:56:43.772Z,101723.78
2023-06-23T21:59:48.311Z,101728.19
2023-06-23T22:02:53.127Z,101736.88
2023-06-23T22:05:57.942Z,101740.22
2023-06-23T22:09:02.455Z,101741.34
2023-06-23T22:12:09.806Z,101745.00
2023-06-23T22:15:14.340Z,101746.66
2023-06-23T22:18:35.756Z,101752.94
2023-06-23T22:21:43.629Z,101766.03
2023-06-23T22:24:48.912Z,101760.34
2023-06-23T22:27:55.124Z,101767.91
2023-06-23T22:30:59.755Z,101770.88
2023-06-23T22:34:04.206Z,101779.25
2023-06-23T22:37:08.786Z,101784.50
2023-06-23T22:40:15.436Z,101788.34
2023-06-23T22:43:21.354Z,101783.25
2023-06-23T22:46:25.931Z,101788.16
2023-06-23T22:49:32.867Z,101787.00
2023-06-23T22:52:40.528Z,101790.16
2023-06-23T22:55:45.385Z,101783.34
2023-06-23T22:58:51.745Z,101789.28
2023-06-23T23:01:56.332Z,101795.94
2023-06-23T23:05:01.551Z,101790.97
2023-06-23T23:08:06.693Z,101796.75
2023-06-23T23:11:11.199Z,101795.00
2023-06-23T23:14:17.340Z,101804.38
2023-06-23T23:17:22.077Z,101808.47
2023-06-23T23:20:26.659Z,101801.00
2023-06-23T23:23:35.206Z,101804.81
2023-06-23T23:26:39.760Z,101808.00
2023-06-23T23:29:45.669Z,101807.50
2023-06-23T23:32:50.372Z,101808.47
2023-06-23T23:36:03.165Z,101814.75
2023-06-23T23:39:08.584Z,101806.72
2023-06-23T23:42:13.129Z,101811.31
2023-06-23T23:45:19.140Z,101808.53
2023-06-23T23:48:23.612Z,101807.81
2023-06-23T23:51:28.877Z,101818.63
2023-06-23T23:54:33.827Z,101833.16
2023-06-23T23:57:38.599Z,101824.69
